createdAt,value
2023-07-20T00:00:54.945Z,54.45
2023-07-20T00:03:26.301Z,54.52
2023-07-20T00:05:53.707Z,54.41
2023-07-20T00:08:21.015Z,54.29
2023-07-20T00:10:48.321Z,54.27
2023-07-20T00:13:17.012Z,54.38
2023-07-20T00:15:44.215Z,54.21
2023-07-20T00:18:11.476Z,54.04
2023-07-20T00:20:38.739Z,53.89
2023-07-20T00:23:06.158Z,53.81
2023-07-20T00:25:34.337Z,53.76
2023-07-20T00:28:02.312Z,53.67
2023-07-20T00:30:29.578Z,54.04
2023-07-20T00:32:56.905Z,53.70
2023-07-20T00:35:24.151Z,53.84
2023-07-20T00:37:51.357Z,53.61
2023-07-20T00:40:19.088Z,53.74
2023-07-20T00:42:46.315Z,53.55
2023-07-20T00:45:13.548Z,53.85
2023-07-20T00:47:40.972Z,53.51
2023-07-20T00:50:08.634Z,53.62
2023-07-20T00:52:35.851Z,53.69
2023-07-20T00:55:03.107Z,53.29
2023-07-20T00:57:30.373Z,53.55
2023-07-20T00:59:57.584Z,53.34
2023-07-20T01:02:24.897Z,53.33
2023-07-20T01:04:53.648Z,53.54
2023-07-20T01:07:44.592Z,53.23
2023-07-20T01:10:13.425Z,53.30
2023-07-20T01:12:44.146Z,52.97
2023-07-20T01:15:13.182Z,53.41
2023-07-20T01:17:40.753Z,53.26
2023-07-20T01:20:09.461Z,53.00
2023-07-20T01:23:16.089Z,53.21
2023-07-20T01:26:13.405Z,53.30
2023-07-20T01:29:09.886Z,53.09
2023-07-20T01:31:38.600Z,52.78
2023-07-20T01:34:07.796Z,53.00
2023-07-20T01:36:36.770Z,52.96
2023-07-20T01:39:05.502Z,52.98
2023-07-20T01:41:32.875Z,52.89
2023-07-20T01:44:00.716Z,52.79
2023-07-20T01:46:28.203Z,52.75
2023-07-20T01:48:56.288Z,52.89
2023-07-20T01:51:23.630Z,52.61
2023-07-20T01:53:50.875Z,52.76
2023-07-20T01:56:18.277Z,52.83
2023-07-20T01:58:45.583Z,52.76
2023-07-20T02:01:12.879Z,52.70
2023-07-20T02:03:40.164Z,52.70
2023-07-20T02:06:07.396Z,52.53
2023-07-20T02:08:34.667Z,52.54
2023-07-20T02:11:01.907Z,52.73
2023-07-20T02:13:29.112Z,52.55
2023-07-20T02:15:56.358Z,52.56
2023-07-20T02:18:23.659Z,52.58
2023-07-20T02:20:50.879Z,52.41
2023-07-20T02:23:18.665Z,52.54
2023-07-20T02:25:45.982Z,52.49
2023-07-20T02:28:15.730Z,52.61
2023-07-20T02:30:42.960Z,52.34
2023-07-20T02:33:10.222Z,52.30
2023-07-20T02:35:37.529Z,52.54
2023-07-20T02:38:04.760Z,52.21
2023-07-20T02:40:31.986Z,52.16
2023-07-20T02:42:59.218Z,52.64
2023-07-20T02:45:26.750Z,52.18
2023-07-20T02:47:54.028Z,52.43
2023-07-20T02:50:21.257Z,52.19
2023-07-20T02:52:48.549Z,52.35
2023-07-20T02:55:15.875Z,52.27
2023-07-20T02:57:43.253Z,52.22
2023-07-20T03:00:11.045Z,52.39
2023-07-20T03:02:38.271Z,52.30
2023-07-20T03:05:08.237Z,52.37
2023-07-20T03:07:35.664Z,52.22
2023-07-20T03:10:04.036Z,52.35
2023-07-20T03:12:31.263Z,52.11
2023-07-20T03:14:58.464Z,52.15
2023-07-20T03:17:25.714Z,52.29
2023-07-20T03:19:53.086Z,52.20
2023-07-20T03:22:20.295Z,52.29
2023-07-20T03:24:47.498Z,52.03
2023-07-20T03:27:14.762Z,52.36
2023-07-20T03:29:42.306Z,52.18
2023-07-20T03:32:10.446Z,52.28
2023-07-20T03:34:37.661Z,52.33
2023-07-20T03:37:05.873Z,52.25
2023-07-20T03:39:33.251Z,52.18
2023-07-20T03:42:00.500Z,51.98
2023-07-20T03:44:28.075Z,52.18
2023-07-20T03:46:55.459Z,52.10
2023-07-20T03:49:22.675Z,52.07
2023-07-20T03:51:50.045Z,52.12
2023-07-20T03:54:17.303Z,52.14
2023-07-20T03:56:44.541Z,52.25
2023-07-20T03:59:12.072Z,52.11
2023-07-20T04:01:41.405Z,52.06
2023-07-20T04:04:09.556Z,52.10
2023-07-20T04:06:37.194Z,52.26
2023-07-20T04:09:05.991Z,52.05
2023-07-20T04:11:33.470Z,52.17
2023-07-20T04:14:00.712Z,51.93
2023-07-20T04:16:28.287Z,51.74
2023-07-20T04:18:58.996Z,51.91
2023-07-20T04:21:28.122Z,51.91
2023-07-20T04:23:55.593Z,52.09
2023-07-20T04:26:23.200Z,51.91
2023-07-20T04:28:51.936Z,52.06
2023-07-20T04:31:19.239Z,51.64
2023-07-20T04:33:46.611Z,51.72
2023-07-20T04:36:15.748Z,51.83
2023-07-20T04:38:43.306Z,51.79
2023-07-20T04:41:10.536Z,52.01
2023-07-20T04:43:37.756Z,51.99
2023-07-20T04:46:05.027Z,51.77
2023-07-20T04:48:32.289Z,51.91
2023-07-20T04:50:59.558Z,51.95
2023-07-20T04:53:26.777Z,51.95
2023-07-20T04:55:55.267Z,51.83
2023-07-20T04:58:23.212Z,51.67
2023-07-20T05:00:51.000Z,51.83
2023-07-20T05:03:18.670Z,51.74
2023-07-20T05:05:48.297Z,51.77
2023-07-20T05:08:17.425Z,51.75
2023-07-20T05:10:44.814Z,51.62
2023-07-20T05:13:12.086Z,51.55
2023-07-20T05:15:39.670Z,51.43
2023-07-20T05:18:09.493Z,51.65
2023-07-20T05:20:39.807Z,51.61
2023-07-20T05:23:07.050Z,51.53
2023-07-20T05:25:34.585Z,51.41
2023-07-20T05:28:01.841Z,51.44
2023-07-20T05:30:30.255Z,51.47
2023-07-20T05:32:57.759Z,51.59
2023-07-20T05:35:25.104Z,51.18
2023-07-20T05:37:52.330Z,51.40
2023-07-20T05:40:20.847Z,51.46
2023-07-20T05:42:49.911Z,51.33
2023-07-20T05:45:17.210Z,51.30
2023-07-20T05:47:44.529Z,51.31
2023-07-20T05:50:12.182Z,51.26
2023-07-20T05:52:40.242Z,51.28
2023-07-20T05:55:08.156Z,51.18
2023-07-20T05:57:36.405Z,51.39
2023-07-20T06:00:04.782Z,51.49
2023-07-20T06:02:33.994Z,51.30
2023-07-20T06:05:01.400Z,51.25
2023-07-20T06:07:37.775Z,51.25
2023-07-20T06:10:06.865Z,50.98
2023-07-20T06:12:34.680Z,50.81
2023-07-20T06:15:06.462Z,51.05
2023-07-20T06:17:34.294Z,51.08
2023-07-20T06:20:01.590Z,51.06
2023-07-20T06:22:28.876Z,51.20
2023-07-20T06:24:56.457Z,51.49
2023-07-20T06:27:23.681Z,51.30
2023-07-20T06:29:50.971Z,51.34
2023-07-20T06:32:18.270Z,51.25
2023-07-20T06:34:45.488Z,51.07
2023-07-20T06:37:12.795Z,50.56
2023-07-20T06:42:10.120Z,50.15
2023-07-20T06:44:37.336Z,49.94
2023-07-20T06:47:04.846Z,50.46
2023-07-20T06:49:32.096Z,50.06
2023-07-20T06:51:59.339Z,50.11
2023-07-20T06:54:26.598Z,49.97
2023-07-20T06:59:25.415Z,50.07
2023-07-20T07:01:52.957Z,49.86
2023-07-20T07:04:20.319Z,49.88
2023-07-20T07:06:47.689Z,49.75
2023-07-20T07:09:15.169Z,50.08
2023-07-20T07:11:42.540Z,49.91
2023-07-20T07:14:09.882Z,50.23
2023-07-20T07:16:39.397Z,50.13
2023-07-20T07:19:08.601Z,50.41
2023-07-20T07:21:35.809Z,50.27
2023-07-20T07:24:03.085Z,50.32
2023-07-20T07:26:30.313Z,50.50
2023-07-20T07:28:57.612Z,50.28
2023-07-20T07:31:26.622Z,50.13
2023-07-20T07:33:53.903Z,49.45
2023-07-20T07:36:22.477Z,49.27
2023-07-20T07:39:27.424Z,49.50
2023-07-20T07:41:37.779Z,49.09
2023-07-20T07:44:05.154Z,49.29
2023-07-20T07:46:32.512Z,49.07
2023-07-20T07:48:59.889Z,48.83
2023-07-20T07:51:28.317Z,48.96
2023-07-20T07:53:56.124Z,48.80
2023-07-20T07:56:24.884Z,49.43
2023-07-20T07:58:53.098Z,49.23
2023-07-20T08:01:20.708Z,49.54
2023-07-20T08:03:48.822Z,49.23
2023-07-20T08:06:16.347Z,49.70
2023-07-20T08:08:44.182Z,49.68
2023-07-20T08:11:12.275Z,49.66
2023-07-20T08:13:40.644Z,49.88
2023-07-20T08:16:07.937Z,49.74
2023-07-20T08:18:35.331Z,49.76
2023-07-20T08:21:02.733Z,49.93
2023-07-20T08:23:30.240Z,50.00
2023-07-20T08:25:57.683Z,49.86
2023-07-20T08:28:25.180Z,50.12
2023-07-20T08:30:52.485Z,49.51
2023-07-20T08:33:21.001Z,49.79
2023-07-20T08:35:49.045Z,49.74
2023-07-20T08:38:16.759Z,49.47
2023-07-20T08:40:48.442Z,49.41
2023-07-20T08:43:19.769Z,50.12
2023-07-20T08:45:47.349Z,49.85
2023-07-20T08:48:15.374Z,49.74
2023-07-20T08:50:43.408Z,50.36
2023-07-20T08:53:11.938Z,50.58
2023-07-20T08:55:39.341Z,50.67
2023-07-20T08:58:08.136Z,49.96
2023-07-20T09:00:35.509Z,49.86
2023-07-20T09:03:04.097Z,49.29
2023-07-20T09:08:01.204Z,48.61
2023-07-20T09:10:28.511Z,48.25
2023-07-20T09:12:56.641Z,48.50
2023-07-20T09:15:24.471Z,48.27
2023-07-20T09:17:54.777Z,47.70
2023-07-20T09:20:23.565Z,47.65
2023-07-20T09:22:53.946Z,46.96
2023-07-20T09:25:26.515Z,47.30
2023-07-20T09:27:55.357Z,47.00
2023-07-20T09:30:31.728Z,46.76
2023-07-20T09:33:00.060Z,46.82
2023-07-20T09:35:35.376Z,46.88
2023-07-20T09:50:50.810Z,46.45
2023-07-20T09:53:19.251Z,46.29
2023-07-20T09:55:48.612Z,46.14
2023-07-20T09:58:16.961Z,46.58
2023-07-20T10:03:23.318Z,46.25
2023-07-20T10:05:58.212Z,46.25
2023-07-20T10:11:02.118Z,47.34
2023-07-20T10:13:30.919Z,46.95
2023-07-20T10:16:04.296Z,46.66
2023-07-20T10:18:52.303Z,46.63
2023-07-20T10:23:51.954Z,46.73
2023-07-20T10:26:19.236Z,46.57
2023-07-20T10:28:46.660Z,46.74
2023-07-20T10:31:16.760Z,47.48
2023-07-20T10:33:44.477Z,47.58
2023-07-20T10:38:46.943Z,47.82
2023-07-20T10:41:41.239Z,48.13
2023-07-20T10:44:10.572Z,48.42
2023-07-20T10:46:46.567Z,48.86
2023-07-20T10:49:16.418Z,49.21
2023-07-20T10:51:49.229Z,49.54
2023-07-20T10:54:19.845Z,48.64
2023-07-20T10:56:49.592Z,48.34
2023-07-20T10:59:29.379Z,49.58
2023-07-20T11:02:01.113Z,50.25
2023-07-20T11:04:45.662Z,50.97
2023-07-20T11:07:37.424Z,51.68
2023-07-20T11:10:19.218Z,51.80
2023-07-20T11:13:22.676Z,52.44
2023-07-20T11:16:04.812Z,52.61
2023-07-20T11:18:35.258Z,52.48
2023-07-20T11:21:02.655Z,51.55
2023-07-20T11:23:31.996Z,51.79
2023-07-20T11:26:01.467Z,51.95
2023-07-20T11:28:32.060Z,52.13
2023-07-20T11:30:59.337Z,51.81
2023-07-20T11:33:27.536Z,51.87
2023-07-20T11:35:55.028Z,51.58
2023-07-20T11:38:22.407Z,51.04
2023-07-20T11:40:49.676Z,51.16
2023-07-20T11:45:47.578Z,50.97
2023-07-20T11:48:18.339Z,50.54
2023-07-20T11:50:45.939Z,51.04
2023-07-20T11:53:13.570Z,50.93
2023-07-20T11:55:44.066Z,50.67
2023-07-20T11:58:11.746Z,50.57
2023-07-20T12:00:41.367Z,49.99
2023-07-20T12:03:14.778Z,49.10
2023-07-20T12:08:12.620Z,48.94
2023-07-20T12:10:45.114Z,48.18
2023-07-20T12:13:13.064Z,48.30
2023-07-20T12:15:40.471Z,47.48
2023-07-20T12:18:07.843Z,47.30
2023-07-20T12:20:37.999Z,46.94
2023-07-20T12:23:10.332Z,47.92
2023-07-20T12:25:44.386Z,47.51
2023-07-20T12:28:13.341Z,47.79
2023-07-20T12:30:41.121Z,47.24
2023-07-20T12:33:08.813Z,47.36
2023-07-20T12:35:36.252Z,47.50
2023-07-20T12:38:04.058Z,47.36
2023-07-20T12:40:31.376Z,47.26
2023-07-20T12:42:59.215Z,47.26
2023-07-20T12:45:26.871Z,47.71
2023-07-20T12:47:56.829Z,47.54
2023-07-20T12:50:24.302Z,47.54
2023-07-20T12:52:51.738Z,47.16
2023-07-20T12:55:19.575Z,46.73
2023-07-20T12:57:48.074Z,46.75
2023-07-20T13:00:16.596Z,46.66
2023-07-20T13:02:44.654Z,45.62
2023-07-20T13:05:12.206Z,46.02
2023-07-20T13:10:13.339Z,44.78
2023-07-20T13:12:40.690Z,44.54
2023-07-20T13:15:09.960Z,44.43
2023-07-20T13:17:38.364Z,43.99
2023-07-20T13:20:08.398Z,43.43
2023-07-20T13:22:36.067Z,42.31
2023-07-20T13:25:03.890Z,42.29
2023-07-20T13:27:32.849Z,42.71
2023-07-20T13:30:03.965Z,43.08
2023-07-20T13:32:34.385Z,42.00
2023-07-20T13:35:02.801Z,42.99
2023-07-20T13:37:30.245Z,42.38
2023-07-20T13:39:57.904Z,42.73
2023-07-20T13:42:25.270Z,42.81
2023-07-20T13:44:52.701Z,42.73
2023-07-20T13:47:21.997Z,42.94
2023-07-20T13:49:50.121Z,43.34
2023-07-20T13:55:01.566Z,42.56
2023-07-20T14:00:03.302Z,42.76
2023-07-20T14:07:33.294Z,42.57
2023-07-20T14:12:30.821Z,42.41
2023-07-20T14:14:58.321Z,42.41
2023-07-20T14:17:26.750Z,41.68
2023-07-20T14:19:54.961Z,41.54
2023-07-20T14:22:22.333Z,42.06
2023-07-20T14:24:49.680Z,42.22
2023-07-20T14:27:17.249Z,42.63
2023-07-20T14:29:44.918Z,42.66
2023-07-20T14:32:12.577Z,42.88
2023-07-20T14:34:40.708Z,42.90
2023-07-20T14:37:08.122Z,42.94
2023-07-20T14:39:35.601Z,42.84
2023-07-20T14:42:06.050Z,42.93
2023-07-20T14:44:36.496Z,43.45
2023-07-20T14:47:14.293Z,43.49
2023-07-20T14:49:42.597Z,42.94
2023-07-20T14:54:40.342Z,42.97
2023-07-20T14:57:15.420Z,42.10
2023-07-20T14:59:43.622Z,42.13
2023-07-20T15:02:11.160Z,41.33
2023-07-20T15:04:38.708Z,41.62
2023-07-20T15:07:06.242Z,41.45
2023-07-20T15:09:35.082Z,41.54
2023-07-20T15:12:03.036Z,40.89
2023-07-20T15:14:30.514Z,40.30
2023-07-20T15:16:57.930Z,40.13
2023-07-20T15:19:25.195Z,40.35
2023-07-20T15:21:52.796Z,40.35
2023-07-20T15:24:20.249Z,40.31
2023-07-20T15:26:47.689Z,40.00
2023-07-20T15:34:16.511Z,41.08
2023-07-20T15:36:43.989Z,41.20
2023-07-20T15:39:11.598Z,41.00
2023-07-20T15:41:39.196Z,40.80
2023-07-20T15:44:06.935Z,41.19
2023-07-20T15:46:44.070Z,40.96
2023-07-20T15:49:11.786Z,40.96
2023-07-20T15:51:42.728Z,40.49
2023-07-20T15:54:13.205Z,40.56
2023-07-20T15:56:41.811Z,40.57
2023-07-20T15:59:12.319Z,40.51
2023-07-20T16:01:41.408Z,40.46
2023-07-20T16:04:09.133Z,40.38
2023-07-20T16:06:37.060Z,40.82
2023-07-20T16:09:09.263Z,40.86
2023-07-20T16:11:40.556Z,41.06
2023-07-20T16:14:08.594Z,41.03
2023-07-20T16:16:36.535Z,41.07
2023-07-20T16:19:04.288Z,40.97
2023-07-20T16:21:33.443Z,41.47
2023-07-20T16:24:01.334Z,41.40
2023-07-20T16:26:29.040Z,41.24
2023-07-20T16:31:26.787Z,41.48
2023-07-20T16:34:05.923Z,41.33
2023-07-20T16:36:57.163Z,41.51
2023-07-20T16:44:22.588Z,41.58
2023-07-20T16:49:20.243Z,40.75
2023-07-20T16:51:47.497Z,40.71
2023-07-20T16:54:16.963Z,40.12
2023-07-20T16:56:45.558Z,40.23
2023-07-20T16:59:12.874Z,40.06
2023-07-20T17:01:40.415Z,40.61
2023-07-20T17:04:07.708Z,40.60
2023-07-20T17:06:36.088Z,40.60
2023-07-20T17:09:03.731Z,40.45
2023-07-20T17:11:31.036Z,40.29
2023-07-20T17:13:58.261Z,40.36
2023-07-20T17:16:25.967Z,40.25
2023-07-20T17:18:53.899Z,40.75
2023-07-20T17:21:21.158Z,40.52
2023-07-20T17:28:51.462Z,41.18
2023-07-20T17:31:21.217Z,40.84
2023-07-20T17:33:48.714Z,40.87
2023-07-20T17:38:47.170Z,41.00
2023-07-20T17:41:20.269Z,41.09
2023-07-20T17:43:47.534Z,41.25
2023-07-20T17:48:45.640Z,40.89
2023-07-20T17:51:13.218Z,40.82
2023-07-20T17:53:40.444Z,40.93
2023-07-20T17:56:08.560Z,41.18
2023-07-20T17:58:35.791Z,41.18
2023-07-20T18:01:04.218Z,41.25
2023-07-20T18:03:31.752Z,41.16
2023-07-20T18:06:10.499Z,40.91
2023-07-20T18:08:38.251Z,41.08
2023-07-20T18:11:06.477Z,40.78
2023-07-20T18:13:34.011Z,41.10
2023-07-20T18:16:01.442Z,41.14
2023-07-20T18:18:29.352Z,41.01
2023-07-20T18:20:56.751Z,41.04
2023-07-20T18:23:23.998Z,41.20
2023-07-20T18:25:51.307Z,41.04
2023-07-20T18:28:18.834Z,41.05
2023-07-20T18:30:47.040Z,41.01
2023-07-20T18:33:14.400Z,41.16
2023-07-20T18:35:41.935Z,40.81
2023-07-20T18:38:10.278Z,41.30
2023-07-20T18:40:37.543Z,41.08
2023-07-20T18:43:05.064Z,41.20
2023-07-20T18:45:32.425Z,41.51
2023-07-20T18:48:00.059Z,41.33
2023-07-20T18:50:27.527Z,41.60
2023-07-20T18:53:00.570Z,41.67
2023-07-20T18:55:28.801Z,41.99
2023-07-20T18:57:56.364Z,42.23
2023-07-20T19:00:24.061Z,42.18
2023-07-20T19:02:51.595Z,42.23
2023-07-20T19:05:20.097Z,42.14
2023-07-20T19:07:47.501Z,42.01
2023-07-20T19:10:15.346Z,42.14
2023-07-20T19:12:43.014Z,42.32
2023-07-20T19:15:14.811Z,42.38
2023-07-20T19:17:42.546Z,42.46
2023-07-20T19:20:15.991Z,42.58
2023-07-20T19:22:46.576Z,42.84
2023-07-20T19:25:14.013Z,42.75
2023-07-20T19:27:41.907Z,42.87
2023-07-20T19:30:09.845Z,42.71
2023-07-20T19:32:37.263Z,42.84
2023-07-20T19:35:05.149Z,42.88
2023-07-20T19:37:32.589Z,43.07
2023-07-20T19:40:00.096Z,43.14
2023-07-20T19:42:27.391Z,43.24
2023-07-20T19:44:54.788Z,43.04
2023-07-20T19:47:22.872Z,43.25
2023-07-20T19:49:52.775Z,43.04
2023-07-20T19:52:20.215Z,42.85
2023-07-20T19:54:48.243Z,42.46
2023-07-20T19:59:45.825Z,42.71
2023-07-20T20:02:13.283Z,42.73
2023-07-20T20:07:13.748Z,42.90
2023-07-20T20:09:42.300Z,43.18
2023-07-20T20:12:10.355Z,43.18
2023-07-20T20:14:37.858Z,43.69
2023-07-20T20:17:06.828Z,43.57
2023-07-20T20:19:34.234Z,43.67
2023-07-20T20:22:03.291Z,43.89
2023-07-20T20:24:32.024Z,43.63
2023-07-20T20:26:59.604Z,43.84
2023-07-20T20:29:28.991Z,44.27
2023-07-20T20:31:56.440Z,44.23
2023-07-20T20:34:23.912Z,44.67
2023-07-20T20:36:51.366Z,45.00
2023-07-20T20:39:19.372Z,45.24
2023-07-20T20:41:47.738Z,45.48
2023-07-20T20:44:19.122Z,44.93
2023-07-20T20:46:46.889Z,45.47
2023-07-20T20:49:14.534Z,44.97
2023-07-20T20:51:43.090Z,44.58
2023-07-20T20:54:11.492Z,44.59
2023-07-20T20:56:39.364Z,44.47
2023-07-20T20:59:07.134Z,44.98
2023-07-20T21:01:34.363Z,44.76
2023-07-20T21:04:01.724Z,44.96
2023-07-20T21:06:29.079Z,45.48
2023-07-20T21:08:56.575Z,45.19
2023-07-20T21:11:23.779Z,45.42
2023-07-20T21:13:50.998Z,45.76
2023-07-20T21:16:20.943Z,45.88
2023-07-20T21:18:49.079Z,46.33
2023-07-20T21:21:16.637Z,46.79
2023-07-20T21:23:44.109Z,46.54
2023-07-20T21:26:11.484Z,46.95
2023-07-20T21:28:38.954Z,47.26
2023-07-20T21:31:08.343Z,47.26
2023-07-20T21:33:35.593Z,47.58
2023-07-20T21:36:02.898Z,48.01
2023-07-20T21:38:31.540Z,48.16
2023-07-20T21:40:58.960Z,48.17
2023-07-20T21:43:26.552Z,48.25
2023-07-20T21:45:53.947Z,48.45
2023-07-20T21:48:21.401Z,48.30
2023-07-20T21:50:52.408Z,48.38
2023-07-20T21:53:20.040Z,48.25
2023-07-20T21:55:50.277Z,48.30
2023-07-20T21:58:20.788Z,48.17
2023-07-20T22:00:52.018Z,48.68
2023-07-20T22:03:22.980Z,48.37
2023-07-20T22:05:53.138Z,48.49
2023-07-20T22:08:21.114Z,48.73
2023-07-20T22:10:48.495Z,49.29
2023-07-20T22:13:17.324Z,49.50
2023-07-20T22:15:44.630Z,50.13
2023-07-20T22:18:25.172Z,50.14
2023-07-20T22:20:59.803Z,49.80
2023-07-20T22:23:27.438Z,49.71
2023-07-20T22:25:54.619Z,49.47
2023-07-20T22:28:21.831Z,49.46
2023-07-20T22:30:52.488Z,49.57
2023-07-20T22:33:20.060Z,49.89
2023-07-20T22:35:47.241Z,50.03
2023-07-20T22:38:14.481Z,49.90
2023-07-20T22:40:41.983Z,50.35
2023-07-20T22:43:09.368Z,50.54
2023-07-20T22:45:36.609Z,50.60
2023-07-20T22:48:03.980Z,50.71
2023-07-20T22:50:31.212Z,50.96
2023-07-20T22:52:58.419Z,51.70
2023-07-20T22:55:25.662Z,51.42
2023-07-20T22:57:55.201Z,51.90
2023-07-20T23:00:28.018Z,51.63
2023-07-20T23:02:57.244Z,51.51
2023-07-20T23:05:25.885Z,51.35
2023-07-20T23:07:56.246Z,51.77
2023-07-20T23:10:23.574Z,52.20
2023-07-20T23:12:51.259Z,51.82
2023-07-20T23:15:18.902Z,51.99
2023-07-20T23:17:49.169Z,51.88
2023-07-20T23:20:19.506Z,51.98
2023-07-20T23:22:50.911Z,52.17
2023-07-20T23:25:19.412Z,52.13
2023-07-20T23:27:46.776Z,51.94
2023-07-20T23:30:15.003Z,52.35
2023-07-20T23:32:42.911Z,53.03
2023-07-20T23:35:11.715Z,52.66
2023-07-20T23:37:40.292Z,52.91
2023-07-20T23:40:13.720Z,52.83
2023-07-20T23:42:41.961Z,53.16
2023-07-20T23:45:10.167Z,54.18
2023-07-20T23:47:38.675Z,53.85
2023-07-20T23:50:07.298Z,53.28
2023-07-20T23:52:35.457Z,53.06
2023-07-20T23:55:04.074Z,53.78
2023-07-20T23:57:31.965Z,53.62
2023-07-20T23:59:59.531Z,53.35
